sensor_id;sensor_type;location;lat;lon;timestamp;P1;durP1;ratioP1;P2;durP2;ratioP2
10461;SDS011;5278;42.656;23.374;2023-08-06T00:02:15;3.73;;;3.00;;
10461;SDS011;5278;42.656;23.374;2023-08-06T00:04:42;4.47;;;3.23;;
10461;SDS011;5278;42.656;23.374;2023-08-06T00:07:13;3.90;;;3.10;;
10461;SDS011;5278;42.656;23.374;2023-08-06T00:09:39;5.67;;;3.40;;
10461;SDS011;5278;42.656;23.374;2023-08-06T00:12:07;6.77;;;3.60;;
10461;SDS011;5278;42.656;23.374;2023-08-06T00:14:34;5.70;;;3.93;;
10461;SDS011;5278;42.656;23.374;2023-08-06T00:17:01;6.93;;;4.57;;
10461;SDS011;5278;42.656;23.374;2023-08-06T00:19:28;6.13;;;3.30;;
10461;SDS011;5278;42.656;23.374;2023-08-06T00:21:55;5.90;;;3.30;;
10461;SDS011;5278;42.656;23.374;2023-08-06T00:24:24;4.57;;;3.20;;
10461;SDS011;5278;42.656;23.374;2023-08-06T00:26:51;3.73;;;2.67;;
10461;SDS011;5278;42.656;23.374;2023-08-06T00:29:18;5.90;;;2.97;;
10461;SDS011;5278;42.656;23.374;2023-08-06T00:31:45;3.50;;;3.20;;
10461;SDS011;5278;42.656;23.374;2023-08-06T00:34:12;3.67;;;2.97;;
10461;SDS011;5278;42.656;23.374;2023-08-06T00:36:40;4.77;;;3.33;;
10461;SDS011;5278;42.656;23.374;2023-08-06T00:39:07;4.47;;;3.33;;
10461;SDS011;5278;42.656;23.374;2023-08-06T00:41:36;3.57;;;2.97;;
10461;SDS011;5278;42.656;23.374;2023-08-06T00:44:03;4.60;;;3.20;;
10461;SDS011;5278;42.656;23.374;2023-08-06T00:46:30;3.77;;;3.00;;
10461;SDS011;5278;42.656;23.374;2023-08-06T00:49:01;3.50;;;2.90;;
10461;SDS011;5278;42.656;23.374;2023-08-06T00:51:28;5.10;;;3.10;;
10461;SDS011;5278;42.656;23.374;2023-08-06T00:53:55;3.63;;;3.10;;
10461;SDS011;5278;42.656;23.374;2023-08-06T00:56:22;4.93;;;3.37;;
10461;SDS011;5278;42.656;23.374;2023-08-06T00:58:52;4.67;;;3.10;;
10461;SDS011;5278;42.656;23.374;2023-08-06T01:01:19;3.70;;;3.33;;
10461;SDS011;5278;42.656;23.374;2023-08-06T01:03:46;4.13;;;3.33;;
10461;SDS011;5278;42.656;23.374;2023-08-06T01:06:14;4.53;;;3.53;;
10461;SDS011;5278;42.656;23.374;2023-08-06T01:08:57;4.37;;;3.10;;
10461;SDS011;5278;42.656;23.374;2023-08-06T01:11:30;4.47;;;3.67;;
10461;SDS011;5278;42.656;23.374;2023-08-06T01:14:06;3.73;;;3.33;;
10461;SDS011;5278;42.656;23.374;2023-08-06T01:16:50;3.30;;;2.97;;
10461;SDS011;5278;42.656;23.374;2023-08-06T01:19:17;6.30;;;4.03;;
10461;SDS011;5278;42.656;23.374;2023-08-06T01:21:46;4.67;;;3.57;;
10461;SDS011;5278;42.656;23.374;2023-08-06T01:24:15;4.60;;;3.83;;
10461;SDS011;5278;42.656;23.374;2023-08-06T01:26:44;6.27;;;4.10;;
10461;SDS011;5278;42.656;23.374;2023-08-06T01:29:13;4.13;;;3.70;;
10461;SDS011;5278;42.656;23.374;2023-08-06T01:31:46;4.30;;;3.27;;
10461;SDS011;5278;42.656;23.374;2023-08-06T01:34:17;4.30;;;3.90;;
10461;SDS011;5278;42.656;23.374;2023-08-06T01:36:50;6.97;;;4.17;;
10461;SDS011;5278;42.656;23.374;2023-08-06T01:39:20;6.43;;;4.23;;
10461;SDS011;5278;42.656;23.374;2023-08-06T01:41:47;5.43;;;3.80;;
10461;SDS011;5278;42.656;23.374;2023-08-06T01:44:14;5.70;;;4.07;;
10461;SDS011;5278;42.656;23.374;2023-08-06T01:46:42;4.53;;;3.87;;
10461;SDS011;5278;42.656;23.374;2023-08-06T01:49:09;4.20;;;3.70;;
10461;SDS011;5278;42.656;23.374;2023-08-06T01:51:36;5.70;;;3.90;;
10461;SDS011;5278;42.656;23.374;2023-08-06T01:54:05;4.20;;;3.80;;
10461;SDS011;5278;42.656;23.374;2023-08-06T01:56:32;3.93;;;3.50;;
10461;SDS011;5278;42.656;23.374;2023-08-06T01:58:59;5.97;;;4.27;;
10461;SDS011;5278;42.656;23.374;2023-08-06T02:01:26;4.93;;;3.57;;
10461;SDS011;5278;42.656;23.374;2023-08-06T02:03:53;8.17;;;4.23;;
10461;SDS011;5278;42.656;23.374;2023-08-06T02:06:20;6.37;;;4.23;;
10461;SDS011;5278;42.656;23.374;2023-08-06T02:08:47;6.13;;;4.53;;
10461;SDS011;5278;42.656;23.374;2023-08-06T02:11:15;4.63;;;4.13;;
10461;SDS011;5278;42.656;23.374;2023-08-06T02:13:43;5.07;;;3.83;;
10461;SDS011;5278;42.656;23.374;2023-08-06T02:16:10;8.60;;;4.00;;
10461;SDS011;5278;42.656;23.374;2023-08-06T02:18:37;4.43;;;4.03;;
10461;SDS011;5278;42.656;23.374;2023-08-06T02:21:04;6.97;;;4.63;;
10461;SDS011;5278;42.656;23.374;2023-08-06T02:23:31;8.20;;;4.00;;
10461;SDS011;5278;42.656;23.374;2023-08-06T02:25:58;7.60;;;4.40;;
10461;SDS011;5278;42.656;23.374;2023-08-06T02:28:28;6.40;;;4.50;;
10461;SDS011;5278;42.656;23.374;2023-08-06T02:30:55;8.13;;;4.17;;
10461;SDS011;5278;42.656;23.374;2023-08-06T02:33:22;4.50;;;4.10;;
10461;SDS011;5278;42.656;23.374;2023-08-06T02:35:51;4.00;;;3.70;;
10461;SDS011;5278;42.656;23.374;2023-08-06T02:38:24;4.63;;;3.70;;
10461;SDS011;5278;42.656;23.374;2023-08-06T02:40:51;4.50;;;3.67;;
10461;SDS011;5278;42.656;23.374;2023-08-06T02:43:18;4.93;;;3.57;;
10461;SDS011;5278;42.656;23.374;2023-08-06T02:45:46;6.40;;;4.00;;
10461;SDS011;5278;42.656;23.374;2023-08-06T02:48:13;3.93;;;3.60;;
10461;SDS011;5278;42.656;23.374;2023-08-06T02:50:40;5.10;;;3.37;;
10461;SDS011;5278;42.656;23.374;2023-08-06T02:53:08;4.77;;;3.20;;
10461;SDS011;5278;42.656;23.374;2023-08-06T02:55:35;5.20;;;3.83;;
10461;SDS011;5278;42.656;23.374;2023-08-06T02:58:03;4.53;;;3.37;;
10461;SDS011;5278;42.656;23.374;2023-08-06T03:00:31;4.77;;;3.20;;
10461;SDS011;5278;42.656;23.374;2023-08-06T03:02:59;4.43;;;3.63;;
10461;SDS011;5278;42.656;23.374;2023-08-06T03:05:26;3.80;;;3.50;;
10461;SDS011;5278;42.656;23.374;2023-08-06T03:07:53;4.10;;;3.43;;
10461;SDS011;5278;42.656;23.374;2023-08-06T03:10:20;4.57;;;3.47;;
10461;SDS011;5278;42.656;23.374;2023-08-06T03:12:47;7.07;;;3.47;;
10461;SDS011;5278;42.656;23.374;2023-08-06T03:15:15;3.67;;;3.20;;
10461;SDS011;5278;42.656;23.374;2023-08-06T03:17:42;5.07;;;4.03;;
10461;SDS011;5278;42.656;23.374;2023-08-06T03:20:12;4.30;;;3.33;;
10461;SDS011;5278;42.656;23.374;2023-08-06T03:22:39;3.83;;;3.10;;
10461;SDS011;5278;42.656;23.374;2023-08-06T03:25:06;4.57;;;3.47;;
10461;SDS011;5278;42.656;23.374;2023-08-06T03:27:33;5.30;;;3.53;;
10461;SDS011;5278;42.656;23.374;2023-08-06T03:30:00;4.70;;;3.97;;
10461;SDS011;5278;42.656;23.374;2023-08-06T03:32:27;4.17;;;3.73;;
10461;SDS011;5278;42.656;23.374;2023-08-06T03:34:54;4.63;;;3.73;;
10461;SDS011;5278;42.656;23.374;2023-08-06T03:37:23;3.53;;;3.10;;
10461;SDS011;5278;42.656;23.374;2023-08-06T03:39:50;3.00;;;2.70;;
10461;SDS011;5278;42.656;23.374;2023-08-06T03:42:17;5.83;;;3.73;;
10461;SDS011;5278;42.656;23.374;2023-08-06T03:44:43;4.43;;;3.60;;
10461;SDS011;5278;42.656;23.374;2023-08-06T03:47:10;5.10;;;3.73;;
10461;SDS011;5278;42.656;23.374;2023-08-06T03:49:37;4.17;;;3.37;;
10461;SDS011;5278;42.656;23.374;2023-08-06T03:52:05;3.60;;;3.27;;
10461;SDS011;5278;42.656;23.374;2023-08-06T03:54:33;4.50;;;3.73;;
10461;SDS011;5278;42.656;23.374;2023-08-06T03:57:01;4.47;;;4.03;;
10461;SDS011;5278;42.656;23.374;2023-08-06T03:59:27;5.30;;;3.90;;
10461;SDS011;5278;42.656;23.374;2023-08-06T04:01:54;6.13;;;3.40;;
10461;SDS011;5278;42.656;23.374;2023-08-06T04:04:21;4.60;;;3.60;;
10461;SDS011;5278;42.656;23.374;2023-08-06T04:06:48;4.93;;;4.00;;
10461;SDS011;5278;42.656;23.374;2023-08-06T04:09:15;4.47;;;4.00;;
10461;SDS011;5278;42.656;23.374;2023-08-06T04:11:46;9.60;;;4.23;;
10461;SDS011;5278;42.656;23.374;2023-08-06T04:14:13;5.00;;;3.40;;
10461;SDS011;5278;42.656;23.374;2023-08-06T04:16:40;4.10;;;3.70;;
10461;SDS011;5278;42.656;23.374;2023-08-06T04:19:07;5.23;;;3.40;;
10461;SDS011;5278;42.656;23.374;2023-08-06T04:21:35;3.50;;;3.03;;
10461;SDS011;5278;42.656;23.374;2023-08-06T04:24:02;4.37;;;3.40;;
10461;SDS011;5278;42.656;23.374;2023-08-06T04:26:30;6.20;;;3.50;;
10461;SDS011;5278;42.656;23.374;2023-08-06T04:28:58;6.03;;;3.63;;
10461;SDS011;5278;42.656;23.374;2023-08-06T04:31:26;4.07;;;3.60;;
10461;SDS011;5278;42.656;23.374;2023-08-06T04:33:52;4.23;;;3.20;;
10461;SDS011;5278;42.656;23.374;2023-08-06T04:36:20;4.17;;;3.77;;
10461;SDS011;5278;42.656;23.374;2023-08-06T04:38:47;3.80;;;3.47;;
10461;SDS011;5278;42.656;23.374;2023-08-06T04:41:14;4.17;;;3.50;;
10461;SDS011;5278;42.656;23.374;2023-08-06T04:43:41;4.77;;;3.63;;
10461;SDS011;5278;42.656;23.374;2023-08-06T04:46:09;3.97;;;3.40;;
10461;SDS011;5278;42.656;23.374;2023-08-06T04:48:36;3.67;;;3.20;;
10461;SDS011;5278;42.656;23.374;2023-08-06T04:51:04;3.27;;;2.90;;
10461;SDS011;5278;42.656;23.374;2023-08-06T04:53:31;3.43;;;3.07;;
10461;SDS011;5278;42.656;23.374;2023-08-06T04:55:57;3.87;;;3.20;;
10461;SDS011;5278;42.656;23.374;2023-08-06T04:58:25;4.27;;;3.10;;
10461;SDS011;5278;42.656;23.374;2023-08-06T05:00:52;7.37;;;3.33;;
10461;SDS011;5278;42.656;23.374;2023-08-06T05:03:22;6.43;;;4.00;;
10461;SDS011;5278;42.656;23.374;2023-08-06T05:05:49;4.00;;;3.60;;
10461;SDS011;5278;42.656;23.374;2023-08-06T05:08:16;3.80;;;3.40;;
10461;SDS011;5278;42.656;23.374;2023-08-06T05:10:43;5.10;;;3.47;;
10461;SDS011;5278;42.656;23.374;2023-08-06T05:13:10;3.60;;;3.30;;
10461;SDS011;5278;42.656;23.374;2023-08-06T05:15:38;3.93;;;3.53;;
10461;SDS011;5278;42.656;23.374;2023-08-06T05:18:07;4.33;;;3.53;;
10461;SDS011;5278;42.656;23.374;2023-08-06T05:20:37;6.17;;;4.63;;
10461;SDS011;5278;42.656;23.374;2023-08-06T05:23:04;6.07;;;4.67;;
10461;SDS011;5278;42.656;23.374;2023-08-06T05:25:31;4.17;;;3.77;;
10461;SDS011;5278;42.656;23.374;2023-08-06T05:28:00;4.97;;;3.70;;
10461;SDS011;5278;42.656;23.374;2023-08-06T05:30:28;6.50;;;3.93;;
10461;SDS011;5278;42.656;23.374;2023-08-06T05:32:54;5.13;;;4.10;;
10461;SDS011;5278;42.656;23.374;2023-08-06T05:35:22;3.93;;;3.53;;
10461;SDS011;5278;42.656;23.374;2023-08-06T05:37:51;4.97;;;4.47;;
10461;SDS011;5278;42.656;23.374;2023-08-06T05:40:18;5.07;;;4.23;;
10461;SDS011;5278;42.656;23.374;2023-08-06T05:42:45;5.83;;;5.33;;
10461;SDS011;5278;42.656;23.374;2023-08-06T05:45:11;6.20;;;5.10;;
10461;SDS011;5278;42.656;23.374;2023-08-06T05:47:39;5.80;;;5.20;;
10461;SDS011;5278;42.656;23.374;2023-08-06T05:50:06;7.37;;;5.97;;
10461;SDS011;5278;42.656;23.374;2023-08-06T05:52:34;6.87;;;5.73;;
10461;SDS011;5278;42.656;23.374;2023-08-06T05:55:03;8.90;;;7.17;;
10461;SDS011;5278;42.656;23.374;2023-08-06T05:57:30;7.70;;;6.87;;
10461;SDS011;5278;42.656;23.374;2023-08-06T05:59:58;7.57;;;6.87;;
10461;SDS011;5278;42.656;23.374;2023-08-06T06:02:26;9.07;;;7.00;;
10461;SDS011;5278;42.656;23.374;2023-08-06T06:04:52;4.37;;;3.97;;
10461;SDS011;5278;42.656;23.374;2023-08-06T06:07:19;4.30;;;3.67;;
10461;SDS011;5278;42.656;23.374;2023-08-06T06:09:46;3.73;;;3.37;;
10461;SDS011;5278;42.656;23.374;2023-08-06T06:12:15;3.33;;;3.03;;
10461;SDS011;5278;42.656;23.374;2023-08-06T06:14:41;4.13;;;2.60;;
10461;SDS011;5278;42.656;23.374;2023-08-06T06:17:10;2.80;;;2.60;;
10461;SDS011;5278;42.656;23.374;2023-08-06T06:19:37;2.80;;;2.60;;
10461;SDS011;5278;42.656;23.374;2023-08-06T06:22:04;3.20;;;2.87;;
10461;SDS011;5278;42.656;23.374;2023-08-06T06:24:31;4.37;;;2.43;;
10461;SDS011;5278;42.656;23.374;2023-08-06T06:26:58;2.60;;;2.40;;
10461;SDS011;5278;42.656;23.374;2023-08-06T06:29:28;2.53;;;2.27;;
10461;SDS011;5278;42.656;23.374;2023-08-06T06:31:55;3.43;;;2.30;;
10461;SDS011;5278;42.656;23.374;2023-08-06T06:34:22;2.87;;;2.67;;
10461;SDS011;5278;42.656;23.374;2023-08-06T06:36:49;3.10;;;2.23;;
10461;SDS011;5278;42.656;23.374;2023-08-06T06:39:18;3.80;;;2.43;;
10461;SDS011;5278;42.656;23.374;2023-08-06T06:41:45;5.27;;;2.50;;
10461;SDS011;5278;42.656;23.374;2023-08-06T06:44:13;3.10;;;2.80;;
10461;SDS011;5278;42.656;23.374;2023-08-06T06:46:41;2.83;;;2.63;;
10461;SDS011;5278;42.656;23.374;2023-08-06T06:49:08;2.93;;;2.63;;
10461;SDS011;5278;42.656;23.374;2023-08-06T06:51:35;5.47;;;3.20;;
10461;SDS011;5278;42.656;23.374;2023-08-06T06:54:02;3.63;;;2.63;;
10461;SDS011;5278;42.656;23.374;2023-08-06T06:56:29;2.87;;;2.53;;
10461;SDS011;5278;42.656;23.374;2023-08-06T06:58:56;3.87;;;2.40;;
10461;SDS011;5278;42.656;23.374;2023-08-06T07:01:23;2.67;;;2.20;;
10461;SDS011;5278;42.656;23.374;2023-08-06T07:03:53;2.47;;;2.10;;
10461;SDS011;5278;42.656;23.374;2023-08-06T07:06:20;2.53;;;2.33;;
10461;SDS011;5278;42.656;23.374;2023-08-06T07:08:47;2.80;;;2.60;;
10461;SDS011;5278;42.656;23.374;2023-08-06T07:11:14;2.63;;;2.43;;
10461;SDS011;5278;42.656;23.374;2023-08-06T07:13:42;3.77;;;3.03;;
10461;SDS011;5278;42.656;23.374;2023-08-06T07:16:08;3.97;;;2.80;;
10461;SDS011;5278;42.656;23.374;2023-08-06T07:18:36;4.47;;;3.17;;
10461;SDS011;5278;42.656;23.374;2023-08-06T07:21:04;3.80;;;3.23;;
10461;SDS011;5278;42.656;23.374;2023-08-06T07:23:31;2.80;;;2.60;;
10461;SDS011;5278;42.656;23.374;2023-08-06T07:26:00;3.90;;;2.90;;
10461;SDS011;5278;42.656;23.374;2023-08-06T07:28:27;4.27;;;2.53;;
10461;SDS011;5278;42.656;23.374;2023-08-06T07:30:54;3.53;;;2.70;;
10461;SDS011;5278;42.656;23.374;2023-08-06T07:33:22;3.30;;;3.10;;
10461;SDS011;5278;42.656;23.374;2023-08-06T07:35:49;2.70;;;2.50;;
10461;SDS011;5278;42.656;23.374;2023-08-06T07:38:17;3.13;;;2.83;;
10461;SDS011;5278;42.656;23.374;2023-08-06T07:40:46;2.85;;;2.28;;
10461;SDS011;5278;42.656;23.374;2023-08-06T07:43:13;3.10;;;2.50;;
10461;SDS011;5278;42.656;23.374;2023-08-06T07:45:40;4.65;;;2.45;;
10461;SDS011;5278;42.656;23.374;2023-08-06T07:48:07;2.72;;;2.47;;
10461;SDS011;5278;42.656;23.374;2023-08-06T07:50:34;3.00;;;2.80;;
10461;SDS011;5278;42.656;23.374;2023-08-06T07:53:00;2.83;;;2.60;;
10461;SDS011;5278;42.656;23.374;2023-08-06T07:55:29;2.83;;;2.60;;
10461;SDS011;5278;42.656;23.374;2023-08-06T07:57:56;4.32;;;2.90;;
10461;SDS011;5278;42.656;23.374;2023-08-06T08:00:23;3.17;;;2.63;;
10461;SDS011;5278;42.656;23.374;2023-08-06T08:02:50;2.63;;;2.38;;
10461;SDS011;5278;42.656;23.374;2023-08-06T08:05:17;4.88;;;2.80;;
10461;SDS011;5278;42.656;23.374;2023-08-06T08:07:45;3.38;;;2.30;;
10461;SDS011;5278;42.656;23.374;2023-08-06T08:10:12;2.92;;;2.72;;
10461;SDS011;5278;42.656;23.374;2023-08-06T08:12:40;2.65;;;2.40;;
10461;SDS011;5278;42.656;23.374;2023-08-06T08:15:08;3.30;;;3.03;;
10461;SDS011;5278;42.656;23.374;2023-08-06T08:17:35;3.83;;;2.83;;
10461;SDS011;5278;42.656;23.374;2023-08-06T08:20:03;2.80;;;2.50;;
10461;SDS011;5278;42.656;23.374;2023-08-06T08:22:30;2.80;;;2.60;;
10461;SDS011;5278;42.656;23.374;2023-08-06T08:24:58;4.47;;;3.00;;
10461;SDS011;5278;42.656;23.374;2023-08-06T08:27:25;3.22;;;2.92;;
10461;SDS011;5278;42.656;23.374;2023-08-06T08:29:54;3.45;;;3.15;;
10461;SDS011;5278;42.656;23.374;2023-08-06T08:32:20;3.10;;;2.45;;
10461;SDS011;5278;42.656;23.374;2023-08-06T08:34:47;2.83;;;2.63;;
10461;SDS011;5278;42.656;23.374;2023-08-06T08:37:14;4.30;;;2.92;;
10461;SDS011;5278;42.656;23.374;2023-08-06T08:39:41;5.85;;;2.78;;
10461;SDS011;5278;42.656;23.374;2023-08-06T08:42:08;4.15;;;2.70;;
10461;SDS011;5278;42.656;23.374;2023-08-06T08:44:36;3.00;;;2.40;;
10461;SDS011;5278;42.656;23.374;2023-08-06T08:47:06;3.00;;;2.65;;
10461;SDS011;5278;42.656;23.374;2023-08-06T08:49:34;3.20;;;2.90;;
10461;SDS011;5278;42.656;23.374;2023-08-06T08:52:02;4.13;;;2.70;;
10461;SDS011;5278;42.656;23.374;2023-08-06T08:54:31;3.05;;;2.85;;
10461;SDS011;5278;42.656;23.374;2023-08-06T08:57:00;4.10;;;2.42;;
10461;SDS011;5278;42.656;23.374;2023-08-06T08:59:27;3.50;;;3.08;;
10461;SDS011;5278;42.656;23.374;2023-08-06T09:01:55;2.75;;;2.53;;
10461;SDS011;5278;42.656;23.374;2023-08-06T09:04:25;3.30;;;2.70;;
10461;SDS011;5278;42.656;23.374;2023-08-06T09:06:57;2.92;;;2.72;;
10461;SDS011;5278;42.656;23.374;2023-08-06T09:09:26;2.83;;;2.50;;
10461;SDS011;5278;42.656;23.374;2023-08-06T09:11:54;3.50;;;2.97;;
10461;SDS011;5278;42.656;23.374;2023-08-06T09:14:26;3.03;;;2.78;;
10461;SDS011;5278;42.656;23.374;2023-08-06T09:16:53;3.28;;;2.90;;
10461;SDS011;5278;42.656;23.374;2023-08-06T09:19:20;3.53;;;2.90;;
10461;SDS011;5278;42.656;23.374;2023-08-06T09:21:50;3.63;;;2.72;;
10461;SDS011;5278;42.656;23.374;2023-08-06T09:24:18;2.75;;;2.55;;
10461;SDS011;5278;42.656;23.374;2023-08-06T09:26:45;2.72;;;2.53;;
10461;SDS011;5278;42.656;23.374;2023-08-06T09:29:14;2.65;;;2.47;;
10461;SDS011;5278;42.656;23.374;2023-08-06T09:31:42;4.13;;;2.70;;
10461;SDS011;5278;42.656;23.374;2023-08-06T09:34:10;2.80;;;2.60;;
10461;SDS011;5278;42.656;23.374;2023-08-06T09:36:41;3.33;;;2.60;;
10461;SDS011;5278;42.656;23.374;2023-08-06T09:39:16;3.08;;;2.88;;
10461;SDS011;5278;42.656;23.374;2023-08-06T09:41:44;3.63;;;3.30;;
10461;SDS011;5278;42.656;23.374;2023-08-06T09:44:15;3.08;;;2.78;;
10461;SDS011;5278;42.656;23.374;2023-08-06T09:46:47;2.55;;;2.35;;
10461;SDS011;5278;42.656;23.374;2023-08-06T09:49:15;3.80;;;3.08;;
10461;SDS011;5278;42.656;23.374;2023-08-06T09:51:41;3.03;;;2.28;;
10461;SDS011;5278;42.656;23.374;2023-08-06T09:54:10;2.47;;;1.92;;
10461;SDS011;5278;42.656;23.374;2023-08-06T09:56:40;1.95;;;1.85;;
10461;SDS011;5278;42.656;23.374;2023-08-06T09:59:09;2.63;;;2.40;;
10461;SDS011;5278;42.656;23.374;2023-08-06T10:01:37;2.67;;;2.30;;
10461;SDS011;5278;42.656;23.374;2023-08-06T10:04:04;2.55;;;2.30;;
10461;SDS011;5278;42.656;23.374;2023-08-06T10:06:34;3.25;;;2.40;;
10461;SDS011;5278;42.656;23.374;2023-08-06T10:09:02;3.28;;;2.45;;
10461;SDS011;5278;42.656;23.374;2023-08-06T10:11:29;2.50;;;2.30;;
10461;SDS011;5278;42.656;23.374;2023-08-06T10:14:00;2.63;;;2.42;;
10461;SDS011;5278;42.656;23.374;2023-08-06T10:16:31;2.30;;;2.15;;
10461;SDS011;5278;42.656;23.374;2023-08-06T10:18:59;2.50;;;2.22;;
10461;SDS011;5278;42.656;23.374;2023-08-06T10:21:30;3.25;;;2.33;;
10461;SDS011;5278;42.656;23.374;2023-08-06T10:23:57;2.60;;;2.40;;
10461;SDS011;5278;42.656;23.374;2023-08-06T10:26:30;2.63;;;2.42;;
10461;SDS011;5278;42.656;23.374;2023-08-06T10:28:58;3.90;;;2.47;;
10461;SDS011;5278;42.656;23.374;2023-08-06T10:34:27;2.25;;;2.05;;
10461;SDS011;5278;42.656;23.374;2023-08-06T10:37:21;2.20;;;2.10;;
10461;SDS011;5278;42.656;23.374;2023-08-06T10:39:49;2.23;;;2.10;;
10461;SDS011;5278;42.656;23.374;2023-08-06T10:42:21;2.60;;;2.37;;
10461;SDS011;5278;42.656;23.374;2023-08-06T10:47:45;3.70;;;2.93;;
10461;SDS011;5278;42.656;23.374;2023-08-06T10:50:13;4.00;;;3.07;;
10461;SDS011;5278;42.656;23.374;2023-08-06T10:52:42;2.90;;;2.70;;
10461;SDS011;5278;42.656;23.374;2023-08-06T10:55:09;5.03;;;3.00;;
10461;SDS011;5278;42.656;23.374;2023-08-06T10:57:36;2.90;;;2.30;;
10461;SDS011;5278;42.656;23.374;2023-08-06T11:00:04;2.80;;;2.60;;
10461;SDS011;5278;42.656;23.374;2023-08-06T11:02:35;4.40;;;2.93;;
10461;SDS011;5278;42.656;23.374;2023-08-06T11:05:05;3.30;;;2.60;;
10461;SDS011;5278;42.656;23.374;2023-08-06T11:07:33;2.73;;;2.47;;
10461;SDS011;5278;42.656;23.374;2023-08-06T11:10:01;4.53;;;3.10;;
10461;SDS011;5278;42.656;23.374;2023-08-06T11:12:29;5.23;;;2.53;;
10461;SDS011;5278;42.656;23.374;2023-08-06T11:14:58;3.50;;;3.20;;
10461;SDS011;5278;42.656;23.374;2023-08-06T11:17:26;3.40;;;3.10;;
10461;SDS011;5278;42.656;23.374;2023-08-06T11:19:58;3.10;;;2.77;;
10461;SDS011;5278;42.656;23.374;2023-08-06T11:22:25;3.17;;;2.47;;
10461;SDS011;5278;42.656;23.374;2023-08-06T11:24:53;3.17;;;2.88;;
10461;SDS011;5278;42.656;23.374;2023-08-06T11:27:20;3.00;;;2.80;;
10461;SDS011;5278;42.656;23.374;2023-08-06T11:29:47;3.83;;;2.75;;
10461;SDS011;5278;42.656;23.374;2023-08-06T11:32:14;2.65;;;2.45;;
10461;SDS011;5278;42.656;23.374;2023-08-06T11:34:41;3.22;;;2.70;;
10461;SDS011;5278;42.656;23.374;2023-08-06T11:37:13;2.50;;;2.30;;
10461;SDS011;5278;42.656;23.374;2023-08-06T11:39:44;2.20;;;2.00;;
10461;SDS011;5278;42.656;23.374;2023-08-06T11:42:13;2.85;;;2.55;;
10461;SDS011;5278;42.656;23.374;2023-08-06T11:44:40;3.10;;;2.73;;
10461;SDS011;5278;42.656;23.374;2023-08-06T11:47:12;3.20;;;2.90;;
10461;SDS011;5278;42.656;23.374;2023-08-06T11:49:41;3.27;;;3.00;;
10461;SDS011;5278;42.656;23.374;2023-08-06T11:52:16;3.67;;;3.10;;
10461;SDS011;5278;42.656;23.374;2023-08-06T11:54:45;3.80;;;3.50;;
10461;SDS011;5278;42.656;23.374;2023-08-06T11:57:14;4.03;;;3.40;;
10461;SDS011;5278;42.656;23.374;2023-08-06T11:59:43;4.77;;;3.27;;
10461;SDS011;5278;42.656;23.374;2023-08-06T12:02:11;4.80;;;3.30;;
10461;SDS011;5278;42.656;23.374;2023-08-06T12:07:31;4.93;;;3.30;;
10461;SDS011;5278;42.656;23.374;2023-08-06T12:09:59;4.27;;;3.87;;
10461;SDS011;5278;42.656;23.374;2023-08-06T12:12:26;10.87;;;7.03;;
10461;SDS011;5278;42.656;23.374;2023-08-06T12:14:54;5.70;;;4.77;;
10461;SDS011;5278;42.656;23.374;2023-08-06T12:17:21;4.63;;;4.23;;
10461;SDS011;5278;42.656;23.374;2023-08-06T12:19:48;8.80;;;6.90;;
10461;SDS011;5278;42.656;23.374;2023-08-06T12:22:15;6.03;;;5.47;;
10461;SDS011;5278;42.656;23.374;2023-08-06T12:24:45;4.23;;;3.83;;
10461;SDS011;5278;42.656;23.374;2023-08-06T12:27:13;4.37;;;4.03;;
10461;SDS011;5278;42.656;23.374;2023-08-06T12:29:41;4.00;;;3.67;;
10461;SDS011;5278;42.656;23.374;2023-08-06T12:32:09;4.10;;;3.80;;
10461;SDS011;5278;42.656;23.374;2023-08-06T12:34:37;5.07;;;4.57;;
10461;SDS011;5278;42.656;23.374;2023-08-06T12:37:04;4.17;;;3.80;;
10461;SDS011;5278;42.656;23.374;2023-08-06T12:39:32;4.40;;;4.00;;
10461;SDS011;5278;42.656;23.374;2023-08-06T12:42:00;4.53;;;4.13;;
10461;SDS011;5278;42.656;23.374;2023-08-06T12:44:28;4.80;;;4.40;;
10461;SDS011;5278;42.656;23.374;2023-08-06T12:46:55;4.77;;;4.13;;
10461;SDS011;5278;42.656;23.374;2023-08-06T12:49:23;5.70;;;4.80;;
10461;SDS011;5278;42.656;23.374;2023-08-06T12:51:51;4.87;;;4.37;;
10461;SDS011;5278;42.656;23.374;2023-08-06T12:54:19;5.00;;;3.90;;
10461;SDS011;5278;42.656;23.374;2023-08-06T12:56:47;4.80;;;4.37;;
10461;SDS011;5278;42.656;23.374;2023-08-06T12:59:17;4.73;;;4.30;;
10461;SDS011;5278;42.656;23.374;2023-08-06T13:01:45;4.40;;;4.00;;
10461;SDS011;5278;42.656;23.374;2023-08-06T13:04:12;4.77;;;4.27;;
10461;SDS011;5278;42.656;23.374;2023-08-06T13:06:40;5.93;;;5.03;;
10461;SDS011;5278;42.656;23.374;2023-08-06T13:09:07;4.93;;;4.50;;
10461;SDS011;5278;42.656;23.374;2023-08-06T13:11:34;6.27;;;4.87;;
10461;SDS011;5278;42.656;23.374;2023-08-06T13:14:04;4.63;;;4.23;;
10461;SDS011;5278;42.656;23.374;2023-08-06T13:16:33;5.90;;;4.50;;
10461;SDS011;5278;42.656;23.374;2023-08-06T13:19:01;5.27;;;4.80;;
10461;SDS011;5278;42.656;23.374;2023-08-06T13:21:31;5.27;;;4.57;;
10461;SDS011;5278;42.656;23.374;2023-08-06T13:23:59;5.10;;;4.70;;
10461;SDS011;5278;42.656;23.374;2023-08-06T13:26:27;5.00;;;4.60;;
10461;SDS011;5278;42.656;23.374;2023-08-06T13:28:57;5.13;;;4.73;;
10461;SDS011;5278;42.656;23.374;2023-08-06T13:31:25;7.33;;;5.50;;
10461;SDS011;5278;42.656;23.374;2023-08-06T13:33:55;5.63;;;4.93;;
10461;SDS011;5278;42.656;23.374;2023-08-06T13:36:23;5.70;;;5.10;;
10461;SDS011;5278;42.656;23.374;2023-08-06T13:38:50;4.57;;;4.17;;
10461;SDS011;5278;42.656;23.374;2023-08-06T13:41:17;6.17;;;4.47;;
10461;SDS011;5278;42.656;23.374;2023-08-06T13:43:44;5.40;;;4.97;;
10461;SDS011;5278;42.656;23.374;2023-08-06T13:46:11;5.27;;;4.43;;
10461;SDS011;5278;42.656;23.374;2023-08-06T13:48:41;4.77;;;4.37;;
10461;SDS011;5278;42.656;23.374;2023-08-06T13:51:11;7.67;;;4.70;;
10461;SDS011;5278;42.656;23.374;2023-08-06T13:53:38;4.60;;;4.20;;
10461;SDS011;5278;42.656;23.374;2023-08-06T13:56:06;5.13;;;4.27;;
10461;SDS011;5278;42.656;23.374;2023-08-06T13:58:36;4.70;;;4.27;;
10461;SDS011;5278;42.656;23.374;2023-08-06T14:01:03;7.33;;;4.27;;
10461;SDS011;5278;42.656;23.374;2023-08-06T14:03:31;4.87;;;4.37;;
10461;SDS011;5278;42.656;23.374;2023-08-06T14:05:57;5.80;;;4.60;;
10461;SDS011;5278;42.656;23.374;2023-08-06T14:08:26;5.17;;;4.37;;
10461;SDS011;5278;42.656;23.374;2023-08-06T14:10:53;5.57;;;4.30;;
10461;SDS011;5278;42.656;23.374;2023-08-06T14:13:21;8.90;;;4.20;;
10461;SDS011;5278;42.656;23.374;2023-08-06T14:15:48;5.70;;;4.30;;
10461;SDS011;5278;42.656;23.374;2023-08-06T14:18:15;4.33;;;3.93;;
10461;SDS011;5278;42.656;23.374;2023-08-06T14:20:42;5.80;;;4.70;;
10461;SDS011;5278;42.656;23.374;2023-08-06T14:23:10;4.60;;;4.20;;
10461;SDS011;5278;42.656;23.374;2023-08-06T14:25:42;4.90;;;4.27;;
10461;SDS011;5278;42.656;23.374;2023-08-06T14:28:09;4.70;;;3.63;;
10461;SDS011;5278;42.656;23.374;2023-08-06T14:30:37;4.73;;;4.30;;
10461;SDS011;5278;42.656;23.374;2023-08-06T14:33:04;6.50;;;4.07;;
10461;SDS011;5278;42.656;23.374;2023-08-06T14:35:31;4.97;;;4.27;;
10461;SDS011;5278;42.656;23.374;2023-08-06T14:37:58;4.50;;;4.10;;
10461;SDS011;5278;42.656;23.374;2023-08-06T14:40:25;4.23;;;3.93;;
10461;SDS011;5278;42.656;23.374;2023-08-06T14:42:58;4.23;;;3.80;;
10461;SDS011;5278;42.656;23.374;2023-08-06T14:45:25;9.23;;;6.87;;
10461;SDS011;5278;42.656;23.374;2023-08-06T14:47:53;5.87;;;5.03;;
10461;SDS011;5278;42.656;23.374;2023-08-06T14:50:20;4.87;;;4.40;;
10461;SDS011;5278;42.656;23.374;2023-08-06T14:52:46;3.73;;;3.43;;
10461;SDS011;5278;42.656;23.374;2023-08-06T14:55:17;6.40;;;3.93;;
10461;SDS011;5278;42.656;23.374;2023-08-06T14:57:49;5.03;;;3.90;;
10461;SDS011;5278;42.656;23.374;2023-08-06T15:00:17;5.50;;;4.10;;
10461;SDS011;5278;42.656;23.374;2023-08-06T15:02:44;4.97;;;4.10;;